sensor_id;sensor_type;location;lat;lon;timestamp;temperature;humidity
33564;DHT22;19894;48.452;11.494;2022-09-20T00:00:38;20.80;45.60
33564;DHT22;19894;48.452;11.494;2022-09-20T00:03:03;20.80;45.60
33564;DHT22;19894;48.452;11.494;2022-09-20T00:05:36;20.80;45.70
33564;DHT22;19894;48.452;11.494;2022-09-20T00:08:03;20.80;46.20
33564;DHT22;19894;48.452;11.494;2022-09-20T00:10:30;20.80;45.60
33564;DHT22;19894;48.452;11.494;2022-09-20T00:13:01;20.80;45.70
33564;DHT22;19894;48.452;11.494;2022-09-20T00:15:26;20.80;45.80
33564;DHT22;19894;48.452;11.494;2022-09-20T00:17:52;20.80;45.90
33564;DHT22;19894;48.452;11.494;2022-09-20T00:20:17;20.80;46.00
33564;DHT22;19894;48.452;11.494;2022-09-20T00:22:43;20.80;46.10
33564;DHT22;19894;48.452;11.494;2022-09-20T00:25:08;20.80;46.20
33564;DHT22;19894;48.452;11.494;2022-09-20T00:27:34;20.80;46.20
33564;DHT22;19894;48.452;11.494;2022-09-20T00:29:59;20.70;46.30
33564;DHT22;19894;48.452;11.494;2022-09-20T00:32:25;20.70;46.30
33564;DHT22;19894;48.452;11.494;2022-09-20T00:34:52;20.70;46.40
33564;DHT22;19894;48.452;11.494;2022-09-20T00:37:33;20.70;46.50
33564;DHT22;19894;48.452;11.494;2022-09-20T00:40:00;20.70;46.50
33564;DHT22;19894;48.452;11.494;2022-09-20T00:42:27;20.70;46.50
33564;DHT22;19894;48.452;11.494;2022-09-20T00:45:14;20.70;46.20
33564;DHT22;19894;48.452;11.494;2022-09-20T00:48:04;20.70;46.40
33564;DHT22;19894;48.452;11.494;2022-09-20T00:50:43;20.70;46.40
33564;DHT22;19894;48.452;11.494;2022-09-20T00:55:39;20.70;46.00
33564;DHT22;19894;48.452;11.494;2022-09-20T00:58:05;20.70;45.80
33564;DHT22;19894;48.452;11.494;2022-09-20T01:00:31;20.70;45.70
33564;DHT22;19894;48.452;11.494;2022-09-20T01:03:02;20.70;45.70
33564;DHT22;19894;48.452;11.494;2022-09-20T01:05:29;20.80;45.70
33564;DHT22;19894;48.452;11.494;2022-09-20T01:07:55;20.80;45.70
33564;DHT22;19894;48.452;11.494;2022-09-20T01:10:20;20.80;45.70
33564;DHT22;19894;48.452;11.494;2022-09-20T01:12:48;20.80;45.70
33564;DHT22;19894;48.452;11.494;2022-09-20T01:15:14;20.80;45.60
33564;DHT22;19894;48.452;11.494;2022-09-20T01:17:45;20.80;45.70
33564;DHT22;19894;48.452;11.494;2022-09-20T01:20:16;20.80;45.80
33564;DHT22;19894;48.452;11.494;2022-09-20T01:25:53;20.80;46.00
33564;DHT22;19894;48.452;11.494;2022-09-20T01:28:22;20.80;46.10
33564;DHT22;19894;48.452;11.494;2022-09-20T01:31:18;20.70;46.10
33564;DHT22;19894;48.452;11.494;2022-09-20T01:33:58;20.70;46.20
33564;DHT22;19894;48.452;11.494;2022-09-20T01:39:43;20.70;46.40
33564;DHT22;19894;48.452;11.494;2022-09-20T01:42:13;20.70;46.60
33564;DHT22;19894;48.452;11.494;2022-09-20T01:44:53;20.70;46.50
33564;DHT22;19894;48.452;11.494;2022-09-20T01:47:52;20.70;46.40
33564;DHT22;19894;48.452;11.494;2022-09-20T01:59:07;20.70;45.90
33564;DHT22;19894;48.452;11.494;2022-09-20T02:07:25;20.70;45.40
33564;DHT22;19894;48.452;11.494;2022-09-20T02:12:55;20.80;45.50
33564;DHT22;19894;48.452;11.494;2022-09-20T02:15:39;20.80;46.00
33564;DHT22;19894;48.452;11.494;2022-09-20T02:24:00;20.80;45.40
33564;DHT22;19894;48.452;11.494;2022-09-20T02:42:34;20.70;46.00
33564;DHT22;19894;48.452;11.494;2022-09-20T02:45:34;20.70;46.60
33564;DHT22;19894;48.452;11.494;2022-09-20T02:48:02;20.70;46.30
33564;DHT22;19894;48.452;11.494;2022-09-20T02:50:53;20.70;46.30
33564;DHT22;19894;48.452;11.494;2022-09-20T02:59:25;20.70;46.20
33564;DHT22;19894;48.452;11.494;2022-09-20T03:02:29;20.70;46.20
33564;DHT22;19894;48.452;11.494;2022-09-20T03:05:23;20.70;46.20
33564;DHT22;19894;48.452;11.494;2022-09-20T03:18:47;20.70;45.50
33564;DHT22;19894;48.452;11.494;2022-09-20T03:27:24;20.70;45.50
33564;DHT22;19894;48.452;11.494;2022-09-20T03:29:59;20.70;45.40
33564;DHT22;19894;48.452;11.494;2022-09-20T03:38:38;20.80;45.70
33564;DHT22;19894;48.452;11.494;2022-09-20T03:42:06;20.70;45.90
33564;DHT22;19894;48.452;11.494;2022-09-20T03:46:55;20.70;46.00
33564;DHT22;19894;48.452;11.494;2022-09-20T03:50:01;20.70;46.10
33564;DHT22;19894;48.452;11.494;2022-09-20T04:01:06;20.70;46.40
33564;DHT22;19894;48.452;11.494;2022-09-20T04:10:02;20.70;46.20
33564;DHT22;19894;48.452;11.494;2022-09-20T04:13:19;20.70;46.10
33564;DHT22;19894;48.452;11.494;2022-09-20T04:26:50;20.70;45.70
33564;DHT22;19894;48.452;11.494;2022-09-20T04:38:16;20.80;45.80
33564;DHT22;19894;48.452;11.494;2022-09-20T05:15:40;20.70;46.10
33564;DHT22;19894;48.452;11.494;2022-09-20T05:18:55;20.70;46.00
33564;DHT22;19894;48.452;11.494;2022-09-20T05:24:37;20.70;45.80
33564;DHT22;19894;48.452;11.494;2022-09-20T05:30:57;20.70;45.80
33564;DHT22;19894;48.452;11.494;2022-09-20T05:36:01;20.80;45.90
33564;DHT22;19894;48.452;11.494;2022-09-20T05:38:30;20.70;46.40
33564;DHT22;19894;48.452;11.494;2022-09-20T05:41:26;20.70;45.80
33564;DHT22;19894;48.452;11.494;2022-09-20T05:44:07;20.70;45.90
33564;DHT22;19894;48.452;11.494;2022-09-20T05:55:15;20.70;46.30
33564;DHT22;19894;48.452;11.494;2022-09-20T06:01:23;20.70;46.40
33564;DHT22;19894;48.452;11.494;2022-09-20T06:03:55;20.70;46.50
33564;DHT22;19894;48.452;11.494;2022-09-20T06:06:30;20.70;46.50
33564;DHT22;19894;48.452;11.494;2022-09-20T06:09:21;20.70;46.40
33564;DHT22;19894;48.452;11.494;2022-09-20T06:12:14;20.70;46.60
33564;DHT22;19894;48.452;11.494;2022-09-20T06:14:53;20.70;46.40
33564;DHT22;19894;48.452;11.494;2022-09-20T06:22:54;20.70;46.10
33564;DHT22;19894;48.452;11.494;2022-09-20T06:28:04;20.70;46.40
33564;DHT22;19894;48.452;11.494;2022-09-20T06:30:37;20.70;46.30
33564;DHT22;19894;48.452;11.494;2022-09-20T06:35:39;20.80;46.30
33564;DHT22;19894;48.452;11.494;2022-09-20T06:41:36;20.80;46.30
33564;DHT22;19894;48.452;11.494;2022-09-20T06:44:02;20.70;46.30
33564;DHT22;19894;48.452;11.494;2022-09-20T06:46:30;20.80;46.40
33564;DHT22;19894;48.452;11.494;2022-09-20T06:48:57;20.70;46.90
33564;DHT22;19894;48.452;11.494;2022-09-20T06:51:25;20.70;46.40
33564;DHT22;19894;48.452;11.494;2022-09-20T06:53:52;20.70;46.40
33564;DHT22;19894;48.452;11.494;2022-09-20T06:56:23;20.70;46.40
33564;DHT22;19894;48.452;11.494;2022-09-20T06:58:51;20.70;46.50
33564;DHT22;19894;48.452;11.494;2022-09-20T07:01:18;20.70;46.50
33564;DHT22;19894;48.452;11.494;2022-09-20T07:03:43;20.70;46.50
33564;DHT22;19894;48.452;11.494;2022-09-20T07:06:10;20.70;46.50
33564;DHT22;19894;48.452;11.494;2022-09-20T07:08:35;20.70;46.50
33564;DHT22;19894;48.452;11.494;2022-09-20T07:11:12;20.70;46.50
33564;DHT22;19894;48.452;11.494;2022-09-20T07:13:39;20.70;46.50
33564;DHT22;19894;48.452;11.494;2022-09-20T07:16:06;20.70;46.50
33564;DHT22;19894;48.452;11.494;2022-09-20T07:18:33;20.70;46.40
33564;DHT22;19894;48.452;11.494;2022-09-20T07:20:59;20.70;46.40
33564;DHT22;19894;48.452;11.494;2022-09-20T07:23:27;20.70;46.40
33564;DHT22;19894;48.452;11.494;2022-09-20T07:25:54;20.70;46.40
33564;DHT22;19894;48.452;11.494;2022-09-20T07:28:23;20.80;46.40
33564;DHT22;19894;48.452;11.494;2022-09-20T07:30:49;20.80;46.40
33564;DHT22;19894;48.452;11.494;2022-09-20T07:33:16;20.80;46.40
33564;DHT22;19894;48.452;11.494;2022-09-20T07:35:46;20.80;46.30
33564;DHT22;19894;48.452;11.494;2022-09-20T07:38:12;20.80;46.30
33564;DHT22;19894;48.452;11.494;2022-09-20T07:40:38;20.80;46.40
33564;DHT22;19894;48.452;11.494;2022-09-20T07:43:03;20.80;46.40
33564;DHT22;19894;48.452;11.494;2022-09-20T07:45:29;20.80;46.50
33564;DHT22;19894;48.452;11.494;2022-09-20T07:47:56;20.70;46.40
33564;DHT22;19894;48.452;11.494;2022-09-20T07:50:23;20.80;46.40
33564;DHT22;19894;48.452;11.494;2022-09-20T07:52:49;20.80;46.50
33564;DHT22;19894;48.452;11.494;2022-09-20T07:55:15;20.70;46.40
33564;DHT22;19894;48.452;11.494;2022-09-20T07:57:41;20.70;47.00
33564;DHT22;19894;48.452;11.494;2022-09-20T08:00:08;20.70;46.50
33564;DHT22;19894;48.452;11.494;2022-09-20T08:02:34;20.70;46.50
33564;DHT22;19894;48.452;11.494;2022-09-20T08:05:00;20.70;46.60
33564;DHT22;19894;48.452;11.494;2022-09-20T08:07:25;20.70;46.60
33564;DHT22;19894;48.452;11.494;2022-09-20T08:09:51;20.70;46.60
33564;DHT22;19894;48.452;11.494;2022-09-20T08:12:17;20.70;46.70
33564;DHT22;19894;48.452;11.494;2022-09-20T08:14:44;20.70;46.70
33564;DHT22;19894;48.452;11.494;2022-09-20T08:17:10;20.70;46.60
33564;DHT22;19894;48.452;11.494;2022-09-20T08:19:36;20.70;46.60
33564;DHT22;19894;48.452;11.494;2022-09-20T08:22:05;20.70;47.20
33564;DHT22;19894;48.452;11.494;2022-09-20T08:24:31;20.70;46.60
33564;DHT22;19894;48.452;11.494;2022-09-20T08:26:57;20.70;46.50
33564;DHT22;19894;48.452;11.494;2022-09-20T08:29:24;20.70;46.50
33564;DHT22;19894;48.452;11.494;2022-09-20T08:31:50;20.80;46.50
33564;DHT22;19894;48.452;11.494;2022-09-20T08:34:17;20.80;46.50
33564;DHT22;19894;48.452;11.494;2022-09-20T08:36:44;20.80;46.50
33564;DHT22;19894;48.452;11.494;2022-09-20T08:39:16;20.80;46.50
33564;DHT22;19894;48.452;11.494;2022-09-20T08:41:50;20.80;46.50
33564;DHT22;19894;48.452;11.494;2022-09-20T08:44:30;20.80;46.50
33564;DHT22;19894;48.452;11.494;2022-09-20T08:47:21;20.80;46.50
33564;DHT22;19894;48.452;11.494;2022-09-20T08:49:49;20.80;46.50
33564;DHT22;19894;48.452;11.494;2022-09-20T08:52:24;20.80;46.50
33564;DHT22;19894;48.452;11.494;2022-09-20T08:54:50;20.80;46.50
33564;DHT22;19894;48.452;11.494;2022-09-20T08:57:17;20.80;46.60
33564;DHT22;19894;48.452;11.494;2022-09-20T08:59:44;20.80;46.70
33564;DHT22;19894;48.452;11.494;2022-09-20T09:02:20;20.80;46.70
33564;DHT22;19894;48.452;11.494;2022-09-20T09:04:48;20.70;46.70
33564;DHT22;19894;48.452;11.494;2022-09-20T09:07:16;20.70;46.70
33564;DHT22;19894;48.452;11.494;2022-09-20T09:09:46;20.70;46.70
33564;DHT22;19894;48.452;11.494;2022-09-20T09:12:17;20.80;46.80
33564;DHT22;19894;48.452;11.494;2022-09-20T09:14:43;20.70;46.70
33564;DHT22;19894;48.452;11.494;2022-09-20T09:17:29;20.70;46.80
33564;DHT22;19894;48.452;11.494;2022-09-20T09:19:59;20.70;46.70
33564;DHT22;19894;48.452;11.494;2022-09-20T09:22:38;20.70;46.70
33564;DHT22;19894;48.452;11.494;2022-09-20T09:36:05;20.80;46.40
33564;DHT22;19894;48.452;11.494;2022-09-20T09:38:39;20.70;46.30
33564;DHT22;19894;48.452;11.494;2022-09-20T09:41:20;20.80;46.20
33564;DHT22;19894;48.452;11.494;2022-09-20T09:44:04;20.80;46.20
33564;DHT22;19894;48.452;11.494;2022-09-20T09:46:37;20.80;46.20
33564;DHT22;19894;48.452;11.494;2022-09-20T09:49:22;20.80;46.20
33564;DHT22;19894;48.452;11.494;2022-09-20T09:52:13;20.80;46.10
33564;DHT22;19894;48.452;11.494;2022-09-20T09:54:59;20.80;46.30
33564;DHT22;19894;48.452;11.494;2022-09-20T09:57:42;20.80;46.30
33564;DHT22;19894;48.452;11.494;2022-09-20T10:00:18;20.70;46.30
33564;DHT22;19894;48.452;11.494;2022-09-20T10:03:06;20.70;46.40
33564;DHT22;19894;48.452;11.494;2022-09-20T10:16:58;20.70;46.30
33564;DHT22;19894;48.452;11.494;2022-09-20T10:25:37;20.70;46.10
33564;DHT22;19894;48.452;11.494;2022-09-20T10:30:43;20.70;45.70
33564;DHT22;19894;48.452;11.494;2022-09-20T10:33:37;20.70;45.60
33564;DHT22;19894;48.452;11.494;2022-09-20T10:41:17;20.70;45.30
33564;DHT22;19894;48.452;11.494;2022-09-20T10:44:38;20.70;45.20
33564;DHT22;19894;48.452;11.494;2022-09-20T10:47:18;20.80;45.10
33564;DHT22;19894;48.452;11.494;2022-09-20T11:03:17;20.70;45.60
33564;DHT22;19894;48.452;11.494;2022-09-20T11:08:19;20.70;45.60
33564;DHT22;19894;48.452;11.494;2022-09-20T11:10:57;20.70;45.60
33564;DHT22;19894;48.452;11.494;2022-09-20T11:14:00;20.70;45.70
33564;DHT22;19894;48.452;11.494;2022-09-20T11:19:25;20.70;45.80
33564;DHT22;19894;48.452;11.494;2022-09-20T11:27:21;20.70;45.50
33564;DHT22;19894;48.452;11.494;2022-09-20T11:29:53;20.70;44.90
33564;DHT22;19894;48.452;11.494;2022-09-20T11:32:24;20.70;44.50
33564;DHT22;19894;48.452;11.494;2022-09-20T11:35:32;20.70;44.40
33564;DHT22;19894;48.452;11.494;2022-09-20T11:38:16;20.70;44.50
33564;DHT22;19894;48.452;11.494;2022-09-20T11:41:13;20.70;44.50
33564;DHT22;19894;48.452;11.494;2022-09-20T11:43:41;20.70;44.30
33564;DHT22;19894;48.452;11.494;2022-09-20T11:46:12;20.70;44.30
33564;DHT22;19894;48.452;11.494;2022-09-20T11:48:41;20.70;44.20
33564;DHT22;19894;48.452;11.494;2022-09-20T11:51:18;20.70;44.20
33564;DHT22;19894;48.452;11.494;2022-09-20T11:56:28;20.80;44.50
33564;DHT22;19894;48.452;11.494;2022-09-20T11:58:58;20.80;44.80
33564;DHT22;19894;48.452;11.494;2022-09-20T12:01:30;20.70;44.80
33564;DHT22;19894;48.452;11.494;2022-09-20T12:04:23;20.70;45.00
33564;DHT22;19894;48.452;11.494;2022-09-20T12:09:25;20.70;45.20
33564;DHT22;19894;48.452;11.494;2022-09-20T12:11:52;20.70;45.30
33564;DHT22;19894;48.452;11.494;2022-09-20T12:14:21;20.70;45.40
33564;DHT22;19894;48.452;11.494;2022-09-20T12:16:48;20.70;45.40
33564;DHT22;19894;48.452;11.494;2022-09-20T12:24:37;20.70;45.50
33564;DHT22;19894;48.452;11.494;2022-09-20T12:30:20;20.70;45.30
33564;DHT22;19894;48.452;11.494;2022-09-20T12:32:56;20.70;45.20
33564;DHT22;19894;48.452;11.494;2022-09-20T12:38:36;20.70;44.60
33564;DHT22;19894;48.452;11.494;2022-09-20T12:41:12;20.70;44.30
33564;DHT22;19894;48.452;11.494;2022-09-20T12:44:03;20.70;44.40
33564;DHT22;19894;48.452;11.494;2022-09-20T12:46:41;20.70;44.40
33564;DHT22;19894;48.452;11.494;2022-09-20T12:49:29;20.70;44.30
33564;DHT22;19894;48.452;11.494;2022-09-20T12:52:27;20.70;44.40
33564;DHT22;19894;48.452;11.494;2022-09-20T12:58:14;20.70;44.60
33564;DHT22;19894;48.452;11.494;2022-09-20T13:00:47;20.70;44.70
33564;DHT22;19894;48.452;11.494;2022-09-20T13:10:58;20.70;45.10
33564;DHT22;19894;48.452;11.494;2022-09-20T13:13:58;20.70;45.10
33564;DHT22;19894;48.452;11.494;2022-09-20T13:16:36;20.70;45.10
33564;DHT22;19894;48.452;11.494;2022-09-20T13:19:27;20.70;45.20
33564;DHT22;19894;48.452;11.494;2022-09-20T13:24:36;20.70;45.40
33564;DHT22;19894;48.452;11.494;2022-09-20T13:27:06;20.70;45.30
33564;DHT22;19894;48.452;11.494;2022-09-20T13:29:38;20.70;45.40
33564;DHT22;19894;48.452;11.494;2022-09-20T13:32:23;20.70;45.30
33564;DHT22;19894;48.452;11.494;2022-09-20T13:38:00;20.70;45.10
33564;DHT22;19894;48.452;11.494;2022-09-20T13:40:44;20.70;45.00
33564;DHT22;19894;48.452;11.494;2022-09-20T13:43:31;20.70;45.00
33564;DHT22;19894;48.452;11.494;2022-09-20T13:46:04;20.70;45.00
33564;DHT22;19894;48.452;11.494;2022-09-20T13:48:30;20.70;45.00
33564;DHT22;19894;48.452;11.494;2022-09-20T13:50:57;20.70;45.00
33564;DHT22;19894;48.452;11.494;2022-09-20T13:53:25;20.70;45.00
33564;DHT22;19894;48.452;11.494;2022-09-20T13:55:51;20.70;44.90
33564;DHT22;19894;48.452;11.494;2022-09-20T13:58:25;20.80;45.00
33564;DHT22;19894;48.452;11.494;2022-09-20T14:00:57;20.70;45.00
33564;DHT22;19894;48.452;11.494;2022-09-20T14:03:25;20.80;45.10
33564;DHT22;19894;48.452;11.494;2022-09-20T14:05:54;20.70;45.10
33564;DHT22;19894;48.452;11.494;2022-09-20T14:08:36;20.70;45.20
33564;DHT22;19894;48.452;11.494;2022-09-20T14:13:38;20.70;45.20
33564;DHT22;19894;48.452;11.494;2022-09-20T14:16:05;20.70;45.30
33564;DHT22;19894;48.452;11.494;2022-09-20T14:18:32;20.70;45.30
33564;DHT22;19894;48.452;11.494;2022-09-20T14:20:58;20.70;45.30
33564;DHT22;19894;48.452;11.494;2022-09-20T14:23:26;20.70;45.40
33564;DHT22;19894;48.452;11.494;2022-09-20T14:26:58;20.70;45.40
33564;DHT22;19894;48.452;11.494;2022-09-20T14:28:54;20.70;45.50
33564;DHT22;19894;48.452;11.494;2022-09-20T14:31:23;20.70;45.40
33564;DHT22;19894;48.452;11.494;2022-09-20T14:33:52;20.70;45.30
33564;DHT22;19894;48.452;11.494;2022-09-20T14:36:21;20.70;45.20
33564;DHT22;19894;48.452;11.494;2022-09-20T14:38:50;20.70;45.20
33564;DHT22;19894;48.452;11.494;2022-09-20T14:41:38;20.70;45.00
33564;DHT22;19894;48.452;11.494;2022-09-20T14:44:15;20.70;44.90
33564;DHT22;19894;48.452;11.494;2022-09-20T14:46:44;20.70;45.00
33564;DHT22;19894;48.452;11.494;2022-09-20T14:49:31;20.70;45.00
33564;DHT22;19894;48.452;11.494;2022-09-20T14:55:09;20.70;45.00
33564;DHT22;19894;48.452;11.494;2022-09-20T14:57:35;20.70;45.00
33564;DHT22;19894;48.452;11.494;2022-09-20T15:00:09;20.70;45.10
33564;DHT22;19894;48.452;11.494;2022-09-20T15:02:36;20.70;45.20
33564;DHT22;19894;48.452;11.494;2022-09-20T15:05:02;20.70;45.30
33564;DHT22;19894;48.452;11.494;2022-09-20T15:07:28;20.70;45.30
33564;DHT22;19894;48.452;11.494;2022-09-20T15:09:54;20.80;45.60
33564;DHT22;19894;48.452;11.494;2022-09-20T15:12:20;20.70;45.50
33564;DHT22;19894;48.452;11.494;2022-09-20T15:14:46;20.70;45.50
33564;DHT22;19894;48.452;11.494;2022-09-20T15:17:17;20.70;45.50
33564;DHT22;19894;48.452;11.494;2022-09-20T15:19:46;20.70;45.50
33564;DHT22;19894;48.452;11.494;2022-09-20T15:22:12;20.70;45.70
33564;DHT22;19894;48.452;11.494;2022-09-20T15:24:39;20.70;45.70
33564;DHT22;19894;48.452;11.494;2022-09-20T15:27:04;20.70;45.70
33564;DHT22;19894;48.452;11.494;2022-09-20T15:29:30;20.70;45.70
33564;DHT22;19894;48.452;11.494;2022-09-20T15:31:56;20.70;45.80
33564;DHT22;19894;48.452;11.494;2022-09-20T15:34:22;20.70;45.90
33564;DHT22;19894;48.452;11.494;2022-09-20T15:36:48;20.70;45.90
33564;DHT22;19894;48.452;11.494;2022-09-20T15:39:15;20.70;45.90
33564;DHT22;19894;48.452;11.494;2022-09-20T15:41:41;20.70;45.90
33564;DHT22;19894;48.452;11.494;2022-09-20T15:44:09;20.70;45.90
33564;DHT22;19894;48.452;11.494;2022-09-20T15:46:35;20.70;45.90
33564;DHT22;19894;48.452;11.494;2022-09-20T15:49:01;20.70;45.80
33564;DHT22;19894;48.452;11.494;2022-09-20T15:51:28;20.70;45.80
33564;DHT22;19894;48.452;11.494;2022-09-20T15:54:00;20.70;45.70
33564;DHT22;19894;48.452;11.494;2022-09-20T15:56:28;20.80;45.80
33564;DHT22;19894;48.452;11.494;2022-09-20T15:59:00;20.80;45.80
33564;DHT22;19894;48.452;11.494;2022-09-20T16:01:39;20.80;45.70
33564;DHT22;19894;48.452;11.494;2022-09-20T16:06:32;20.80;45.80
33564;DHT22;19894;48.452;11.494;2022-09-20T16:08:58;20.80;45.80
33564;DHT22;19894;48.452;11.494;2022-09-20T16:11:24;20.80;45.80
33564;DHT22;19894;48.452;11.494;2022-09-20T16:13:53;20.80;45.90
33564;DHT22;19894;48.452;11.494;2022-09-20T16:16:19;20.80;45.90
33564;DHT22;19894;48.452;11.494;2022-09-20T16:18:44;20.80;45.90
33564;DHT22;19894;48.452;11.494;2022-09-20T16:21:29;20.80;46.00
33564;DHT22;19894;48.452;11.494;2022-09-20T16:23:56;20.80;46.00
33564;DHT22;19894;48.452;11.494;2022-09-20T16:26:24;20.80;46.10
33564;DHT22;19894;48.452;11.494;2022-09-20T16:28:51;20.80;46.10
33564;DHT22;19894;48.452;11.494;2022-09-20T16:34:25;20.70;46.20
33564;DHT22;19894;48.452;11.494;2022-09-20T16:36:56;20.80;46.30
33564;DHT22;19894;48.452;11.494;2022-09-20T16:39:23;20.70;46.20
33564;DHT22;19894;48.452;11.494;2022-09-20T16:41:57;20.80;46.30
33564;DHT22;19894;48.452;11.494;2022-09-20T16:44:25;20.70;46.20
33564;DHT22;19894;48.452;11.494;2022-09-20T16:46:50;20.70;46.20
33564;DHT22;19894;48.452;11.494;2022-09-20T16:49:16;20.70;46.20
33564;DHT22;19894;48.452;11.494;2022-09-20T16:51:43;20.70;46.10
33564;DHT22;19894;48.452;11.494;2022-09-20T16:54:10;20.70;46.10
33564;DHT22;19894;48.452;11.494;2022-09-20T16:56:39;20.70;46.10
33564;DHT22;19894;48.452;11.494;2022-09-20T16:59:05;20.80;46.10
33564;DHT22;19894;48.452;11.494;2022-09-20T17:01:32;20.80;46.10
33564;DHT22;19894;48.452;11.494;2022-09-20T17:03:58;20.80;46.10
33564;DHT22;19894;48.452;11.494;2022-09-20T17:06:25;20.80;46.10
33564;DHT22;19894;48.452;11.494;2022-09-20T17:08:55;20.80;46.20
33564;DHT22;19894;48.452;11.494;2022-09-20T17:11:22;20.80;46.20
33564;DHT22;19894;48.452;11.494;2022-09-20T17:13:50;20.80;46.10
33564;DHT22;19894;48.452;11.494;2022-09-20T17:16:19;20.80;46.10
33564;DHT22;19894;48.452;11.494;2022-09-20T17:18:45;20.80;46.10
33564;DHT22;19894;48.452;11.494;2022-09-20T17:21:13;20.80;46.20
33564;DHT22;19894;48.452;11.494;2022-09-20T17:23:40;20.80;46.20
33564;DHT22;19894;48.452;11.494;2022-09-20T17:26:16;20.80;46.20
33564;DHT22;19894;48.452;11.494;2022-09-20T17:28:44;20.70;46.20
33564;DHT22;19894;48.452;11.494;2022-09-20T17:31:13;20.80;46.30
33564;DHT22;19894;48.452;11.494;2022-09-20T17:33:39;20.70;46.30
33564;DHT22;19894;48.452;11.494;2022-09-20T17:36:06;20.80;46.40
33564;DHT22;19894;48.452;11.494;2022-09-20T17:38:34;20.80;46.40
33564;DHT22;19894;48.452;11.494;2022-09-20T17:41:06;20.70;46.30
33564;DHT22;19894;48.452;11.494;2022-09-20T17:43:36;20.80;46.40
33564;DHT22;19894;48.452;11.494;2022-09-20T17:46:16;20.70;46.30
33564;DHT22;19894;48.452;11.494;2022-09-20T17:48:44;20.70;46.20
33564;DHT22;19894;48.452;11.494;2022-09-20T17:51:15;20.70;46.30
33564;DHT22;19894;48.452;11.494;2022-09-20T17:53:41;20.70;46.20
33564;DHT22;19894;48.452;11.494;2022-09-20T17:56:09;20.80;46.20
33564;DHT22;19894;48.452;11.494;2022-09-20T17:58:35;20.80;46.10
33564;DHT22;19894;48.452;11.494;2022-09-20T18:01:07;20.70;46.00
33564;DHT22;19894;48.452;11.494;2022-09-20T18:03:37;20.70;46.00
33564;DHT22;19894;48.452;11.494;2022-09-20T18:06:10;20.80;46.00
33564;DHT22;19894;48.452;11.494;2022-09-20T18:08:36;20.80;45.90
33564;DHT22;19894;48.452;11.494;2022-09-20T18:11:02;20.80;45.90
33564;DHT22;19894;48.452;11.494;2022-09-20T18:13:27;20.70;45.90
33564;DHT22;19894;48.452;11.494;2022-09-20T18:15:54;20.80;46.00
33564;DHT22;19894;48.452;11.494;2022-09-20T18:18:20;20.70;45.80
33564;DHT22;19894;48.452;11.494;2022-09-20T18:20:46;20.80;46.00
33564;DHT22;19894;48.452;11.494;2022-09-20T18:23:12;20.80;45.90
33564;DHT22;19894;48.452;11.494;2022-09-20T18:25:37;20.80;45.90
33564;DHT22;19894;48.452;11.494;2022-09-20T18:28:22;20.80;45.90
33564;DHT22;19894;48.452;11.494;2022-09-20T18:30:58;20.80;46.00
33564;DHT22;19894;48.452;11.494;2022-09-20T18:33:24;20.80;46.00
33564;DHT22;19894;48.452;11.494;2022-09-20T18:35:50;20.80;46.00
33564;DHT22;19894;48.452;11.494;2022-09-20T18:38:16;20.80;46.10
33564;DHT22;19894;48.452;11.494;2022-09-20T18:40:43;20.70;46.00
33564;DHT22;19894;48.452;11.494;2022-09-20T18:43:18;20.70;46.00
33564;DHT22;19894;48.452;11.494;2022-09-20T18:45:49;20.70;46.10
33564;DHT22;19894;48.452;11.494;2022-09-20T18:48:17;20.70;46.10
33564;DHT22;19894;48.452;11.494;2022-09-20T18:50:57;20.70;46.10
33564;DHT22;19894;48.452;11.494;2022-09-20T18:53:25;20.70;46.20
33564;DHT22;19894;48.452;11.494;2022-09-20T18:55:51;20.70;46.10
33564;DHT22;19894;48.452;11.494;2022-09-20T18:58:20;20.70;46.10
33564;DHT22;19894;48.452;11.494;2022-09-20T19:01:04;20.70;46.00
33564;DHT22;19894;48.452;11.494;2022-09-20T19:06:27;20.80;46.00
33564;DHT22;19894;48.452;11.494;2022-09-20T19:11:46;20.80;46.00
33564;DHT22;19894;48.452;11.494;2022-09-20T19:14:26;20.80;46.00
33564;DHT22;19894;48.452;11.494;2022-09-20T19:16:59;20.80;46.00
33564;DHT22;19894;48.452;11.494;2022-09-20T19:24:54;20.70;46.00
33564;DHT22;19894;48.452;11.494;2022-09-20T19:27:23;20.80;46.10
33564;DHT22;19894;48.452;11.494;2022-09-20T19:29:50;20.80;46.20
33564;DHT22;19894;48.452;11.494;2022-09-20T19:32:17;20.80;46.20
33564;DHT22;19894;48.452;11.494;2022-09-20T19:34:51;20.80;46.20
33564;DHT22;19894;48.452;11.494;2022-09-20T19:43:47;20.80;46.30
33564;DHT22;19894;48.452;11.494;2022-09-20T19:46:26;20.70;46.40
33564;DHT22;19894;48.452;11.494;2022-09-20T19:49:03;20.70;46.40
33564;DHT22;19894;48.452;11.494;2022-09-20T19:51:35;20.80;46.40
33564;DHT22;19894;48.452;11.494;2022-09-20T19:54:01;20.70;46.40
33564;DHT22;19894;48.452;11.494;2022-09-20T19:56:28;20.70;46.40
33564;DHT22;19894;48.452;11.494;2022-09-20T19:58:56;20.70;46.40
33564;DHT22;19894;48.452;11.494;2022-09-20T20:01:23;20.70;46.30
33564;DHT22;19894;48.452;11.494;2022-09-20T20:03:51;20.70;46.20
33564;DHT22;19894;48.452;11.494;2022-09-20T20:06:32;20.80;46.30
33564;DHT22;19894;48.452;11.494;2022-09-20T20:11:56;20.80;46.10
33564;DHT22;19894;48.452;11.494;2022-09-20T20:14:40;20.80;46.10
33564;DHT22;19894;48.452;11.494;2022-09-20T20:28:20;20.80;46.10
33564;DHT22;19894;48.452;11.494;2022-09-20T20:30:45;20.80;46.00
33564;DHT22;19894;48.452;11.494;2022-09-20T20:33:15;20.80;46.00
33564;DHT22;19894;48.452;11.494;2022-09-20T20:35:40;20.80;46.10
33564;DHT22;19894;48.452;11.494;2022-09-20T20:38:06;20.80;46.10
33564;DHT22;19894;48.452;11.494;2022-09-20T20:40:35;20.70;46.10
33564;DHT22;19894;48.452;11.494;2022-09-20T20:43:01;20.80;46.10
33564;DHT22;19894;48.452;11.494;2022-09-20T20:45:28;20.80;46.20
33564;DHT22;19894;48.452;11.494;2022-09-20T20:47:57;20.80;46.20
33564;DHT22;19894;48.452;11.494;2022-09-20T20:50:24;20.70;46.10
33564;DHT22;19894;48.452;11.494;2022-09-20T20:52:52;20.70;46.10
33564;DHT22;19894;48.452;11.494;2022-09-20T20:55:18;20.70;46.10
33564;DHT22;19894;48.452;11.494;2022-09-20T20:57:50;20.70;46.00
33564;DHT22;19894;48.452;11.494;2022-09-20T21:00:16;20.70;45.80
33564;DHT22;19894;48.452;11.494;2022-09-20T21:02:42;20.70;45.90
33564;DHT22;19894;48.452;11.494;2022-09-20T21:05:09;20.70;45.80
33564;DHT22;19894;48.452;11.494;2022-09-20T21:07:34;20.70;45.70